Redlands, CA (92373)

17:32 PDT le 20 octobre 2014 (GMT -0700)
University of Redlands | Change Station
CLOSE
Current Station
Stations météorologiques personnelles
Location: Redlands, CA
Altitude: 1473 ft
Stations météo à proximité

Alt. 1473 ft 34.06 °N, 117.16 °W | Updated 59 seconds ago

Partiellement nuageux
Partiellement nuageux
76.9 ° F
Paraît 79 ° F
N
5.0
Vent Variable Vent de Sud
Gusts 5.0 mph

Aujourd'hui
Haut(e) -- | Bas -- ° F
--% Risque de précip.
Hier
Haut(e) -- | Bas -- ° F
Precip. -- pouce
6:57 AM 6:08 PM
Lune descendante, 8% visible
Pression 29.87 pouce
Visibilité 7.0 Miles terrestres
Nuages Nuages épars 15000 ft
indice de chaleur 79 ° F
Point de rosée 58 ° F
Humidité 53%
Précipitations 0.00 pouce
Profondeur de la couche neigeuse Non disponible.
UV 1 sur 12
Pollen 3.50 sur 12
Ozone Bon
Flu Activity Sporadic
METAR KSBD 202348Z 27005KT 7SM SCT150 26/11 A2987

More Conditions Fewer Conditions

Pression 29.87 pouce
Visibilité 7.0 Miles terrestres
Nuages Nuages épars 15000 ft
indice de chaleur 79 ° F
Point de rosée 58 ° F
Humidité 53%
Précipitations 0.00 pouce
Profondeur de la couche neigeuse Non disponible.
UV 1 sur 12
Pollen 3.50 sur 12
Ozone Bon
Flu Activity Sporadic
METAR KSBD 202348Z 27005KT 7SM SCT150 26/11 A2987

More Conditions Fewer Conditions

10-Day Weather Forecast

Almanac

Astronomie

Oct. 20, 2014 Lever Coucher
Temps réel 06:57 PDT 18:08 PDT
Crépuscule civil 06:32 PDT 18:33 PDT
Crépuscule nautique 06:03 PDT 19:02 PDT
Crépuscule astronomique 05:34 PDT 19:31 PDT
Lune 03:58 PDT (10/20) 16:26 PDT (10/20)
Durée de lumière visible 12h 01m
Longueur du jour
11h 10m
Tomorrow will be 2m 0s shorter.
Lune descendante, 8% of the Moon is Illuminated
Aujourd'hui
Lune descendante
Oct 23
Nouveau
Oct 30
Premier quartier
Nov 6
Pleine lune
Nov 14
Dernier quartier

Extrêmes aujourd'hui

State Highs State Lows

Community

WunderPhotos

Upload Photos

1,763,566 Photos téléchargées !

Nearby

Qualité de l'air

  Qualité de l'air Indice de la qualité de l'air Polluant
Hier Moyen
OZONE
Actuel Bon
OZONE
mardi Bon
PM10
mardi Moyen
OZONE
mardi Bon
CO
mardi Bon
NO2

Épaisseur de neige

Station Depth Altitude
Leavitt Lake 0 in 9400 ft
Leavitt Meadows 0 in 7200 ft
Summit Meadow 0 in 9122 ft
Forestdale Creek 0 in 8029 ft
Burnside Lake 0 in 8139 ft

Activité sismique

Ville Distance Mag. Time & Date
No recent earthquake activity has been reported nearby.
Minimum magnitude displayed is 2.5.

Températures des eaux côtières

Lieu Température
Aucun rapport de station

Stations météo à proximité